Time;durP1;ratioP1;P1;durP2;ratioP2;P2;SDS_P1;SDS_P2;PMS_P1;PMS_P2;Temp;Humidity;BMP_temperature;BMP_pressure;BME280_temperature;BME280_humidity;BME280_pressure;Samples;Min_cycle;Max_cycle;Signal;HPM_P1;HPM_P2
2020/12/26 00:02:17;;;;;;;6.18;4.35;;;10.20;83.20;;;;;;5079536;28;20182;-76
2020/12/26 00:04:43;;;;;;;5.20;3.83;;;10.20;83.20;;;;;;5072208;28;20179;-76
2020/12/26 00:07:09;;;;;;;5.30;3.70;;;10.20;84.60;;;;;;5069788;28;20811;-78
2020/12/26 00:09:34;;;;;;;4.20;3.83;;;10.10;84.70;;;;;;5064908;28;20198;-76
2020/12/26 00:12:00;;;;;;;5.10;3.63;;;10.00;85.60;;;;;;5066845;28;20307;-76
2020/12/26 00:14:29;;;;;;;4.72;3.13;;;10.00;85.00;;;;;;5057280;28;20182;-76
2020/12/26 00:16:56;;;;;;;3.92;3.47;;;10.00;84.90;;;;;;5072133;28;20318;-76
2020/12/26 00:19:23;;;;;;;3.33;3.03;;;10.00;84.70;;;;;;5071297;28;20218;-76
2020/12/26 00:21:49;;;;;;;3.33;3.03;;;10.00;84.60;;;;;;5079122;28;20178;-77
2020/12/26 00:24:16;;;;;;;3.35;3.15;;;9.90;86.10;;;;;;5073150;28;20183;-77
2020/12/26 00:26:42;;;;;;;3.45;3.25;;;9.90;85.50;;;;;;5068815;28;20279;-77
2020/12/26 00:29:07;;;;;;;4.32;3.22;;;9.80;85.60;;;;;;5082736;28;20236;-76
2020/12/26 00:31:33;;;;;;;4.30;3.55;;;9.80;87.00;;;;;;5067107;28;20175;-77
2020/12/26 00:33:59;;;;;;;3.72;3.53;;;9.70;86.60;;;;;;5069463;28;20182;-77
2020/12/26 00:36:24;;;;;;;4.45;3.05;;;9.70;86.30;;;;;;5086740;28;20186;-77
2020/12/26 00:38:50;;;;;;;3.35;3.05;;;9.70;86.50;;;;;;5087763;28;20221;-77
2020/12/26 00:41:16;;;;;;;2.95;2.75;;;9.70;86.80;;;;;;5082644;28;20193;-77
2020/12/26 00:43:42;;;;;;;2.72;2.60;;;9.70;86.50;;;;;;5076713;28;20175;-77
2020/12/26 00:46:08;;;;;;;3.65;3.35;;;9.70;86.80;;;;;;5065778;28;20653;-77
2020/12/26 00:48:34;;;;;;;3.38;3.17;;;9.70;86.70;;;;;;5088182;28;20198;-77
2020/12/26 00:50:59;;;;;;;2.45;2.35;;;9.70;87.00;;;;;;5078027;28;20201;-77
2020/12/26 00:53:25;;;;;;;2.88;2.67;;;9.60;87.30;;;;;;5067470;28;20193;-77
2020/12/26 00:55:51;;;;;;;3.13;2.90;;;9.60;86.80;;;;;;5071149;28;20177;-77
2020/12/26 00:58:17;;;;;;;2.88;2.67;;;9.60;86.60;;;;;;5047571;28;20241;-77
2020/12/26 01:00:43;;;;;;;3.22;2.53;;;9.50;87.50;;;;;;5062655;28;20186;-77
2020/12/26 01:03:08;;;;;;;4.70;2.67;;;9.50;87.90;;;;;;5085776;28;20182;-77
2020/12/26 01:05:34;;;;;;;3.15;2.95;;;9.40;88.80;;;;;;5062349;28;20167;-77
2020/12/26 01:07:59;;;;;;;3.30;2.38;;;9.40;89.10;;;;;;5070307;28;20183;-77
2020/12/26 01:10:25;;;;;;;4.97;3.40;;;9.40;89.30;;;;;;5062072;28;20202;-77
2020/12/26 01:12:51;;;;;;;2.72;2.63;;;9.40;89.40;;;;;;5078227;28;20186;-77
2020/12/26 01:15:17;;;;;;;2.95;2.75;;;9.40;89.20;;;;;;5078422;28;20182;-77
2020/12/26 01:17:43;;;;;;;2.83;2.63;;;9.40;88.90;;;;;;5061300;28;20618;-77
2020/12/26 01:20:10;;;;;;;3.08;2.88;;;9.40;89.20;;;;;;5068289;28;20276;-77
2020/12/26 01:22:36;;;;;;;2.83;2.63;;;9.40;88.70;;;;;;5068190;28;20190;-77
2020/12/26 01:25:05;;;;;;;2.90;2.70;;;9.40;88.50;;;;;;5050234;28;20179;-77
2020/12/26 01:27:31;;;;;;;2.97;2.88;;;9.40;88.80;;;;;;5082691;28;20270;-77
2020/12/26 01:29:56;;;;;;;3.42;3.08;;;9.40;88.80;;;;;;5056409;28;20285;-77
2020/12/26 01:32:27;;;;;;;3.22;2.85;;;9.40;88.80;;;;;;5060517;28;20175;-77
2020/12/26 01:34:56;;;;;;;4.07;3.63;;;9.30;88.60;;;;;;5040333;28;20186;-77
2020/12/26 01:37:21;;;;;;;3.50;3.10;;;9.30;88.90;;;;;;5046860;28;20233;-77
2020/12/26 01:39:49;;;;;;;3.78;3.47;;;9.30;88.60;;;;;;5076111;28;20607;-77
2020/12/26 01:42:14;;;;;;;4.28;3.95;;;9.30;88.50;;;;;;5070624;28;20211;-78
2020/12/26 01:44:40;;;;;;;4.40;4.00;;;9.30;88.10;;;;;;5060687;28;20573;-77
2020/12/26 01:47:07;;;;;;;4.70;4.20;;;9.20;88.00;;;;;;5075737;28;20220;-77
2020/12/26 01:49:33;;;;;;;3.63;3.28;;;9.20;87.90;;;;;;5069607;28;20685;-77
2020/12/26 01:52:00;;;;;;;4.05;3.65;;;9.30;87.70;;;;;;5069484;28;20179;-77
2020/12/26 01:54:27;;;;;;;3.75;3.38;;;9.20;87.80;;;;;;5067398;28;20677;-77
2020/12/26 01:56:55;;;;;;;5.70;4.03;;;9.20;87.70;;;;;;5050164;28;20189;-77
2020/12/26 01:59:20;;;;;;;4.97;3.60;;;9.20;87.90;;;;;;5049127;28;20218;-77
2020/12/26 02:01:50;;;;;;;3.67;3.30;;;9.20;88.10;;;;;;5072083;28;20218;-77
2020/12/26 02:04:16;;;;;;;4.03;3.63;;;9.30;88.20;;;;;;5068342;28;20187;-76
2020/12/26 02:06:43;;;;;;;4.65;4.07;;;9.20;88.20;;;;;;5070471;28;20190;-77
2020/12/26 02:09:10;;;;;;;3.47;3.17;;;9.20;88.10;;;;;;5068390;28;20668;-77
2020/12/26 02:11:36;;;;;;;4.25;3.85;;;9.20;88.20;;;;;;5078300;28;20201;-77
2020/12/26 02:14:01;;;;;;;6.43;3.85;;;9.20;88.00;;;;;;5085764;28;20178;-77
2020/12/26 02:16:27;;;;;;;3.97;3.70;;;9.20;88.30;;;;;;5073628;28;20167;-77
2020/12/26 02:18:54;;;;;;;3.42;3.22;;;9.10;88.30;;;;;;5060913;28;20174;-77
2020/12/26 02:21:22;;;;;;;4.22;3.25;;;9.20;88.50;;;;;;5070195;28;20178;-77
2020/12/26 02:23:48;;;;;;;3.85;3.45;;;9.20;88.40;;;;;;5065336;28;20658;-77
2020/12/26 02:26:14;;;;;;;3.13;2.92;;;9.10;88.30;;;;;;5083939;28;20182;-77
2020/12/26 02:28:41;;;;;;;3.83;3.55;;;9.10;88.50;;;;;;5072224;28;20266;-77
2020/12/26 02:31:07;;;;;;;3.90;3.60;;;9.10;88.50;;;;;;5066955;28;20220;-77
2020/12/26 02:33:34;;;;;;;4.10;3.40;;;9.10;88.60;;;;;;5048031;28;20175;-77
2020/12/26 02:36:02;;;;;;;3.58;3.38;;;9.10;88.70;;;;;;5068261;28;20594;-76
2020/12/26 02:38:27;;;;;;;3.53;3.25;;;9.10;88.50;;;;;;5069414;28;20231;-77
2020/12/26 02:40:53;;;;;;;3.88;3.08;;;9.10;88.50;;;;;;5070035;28;20179;-77
2020/12/26 02:43:24;;;;;;;3.75;3.55;;;9.10;88.40;;;;;;5056212;28;20183;-77
2020/12/26 02:45:51;;;;;;;6.10;3.67;;;9.10;88.50;;;;;;5071025;28;20178;-77
2020/12/26 02:48:18;;;;;;;4.47;3.38;;;9.00;88.60;;;;;;5072766;28;20182;-77
2020/12/26 02:50:43;;;;;;;3.40;3.10;;;9.00;89.10;;;;;;5069622;28;20258;-77
2020/12/26 02:53:09;;;;;;;3.65;3.38;;;9.00;90.40;;;;;;5059965;28;20272;-77
2020/12/26 02:55:36;;;;;;;3.25;3.08;;;9.00;91.20;;;;;;5069840;28;20206;-77
2020/12/26 02:58:02;;;;;;;3.72;3.40;;;9.00;91.40;;;;;;5082787;28;20179;-77
2020/12/26 03:00:28;;;;;;;3.10;2.90;;;9.00;91.20;;;;;;5067076;28;20274;-77
2020/12/26 03:02:54;;;;;;;3.63;3.42;;;9.00;91.40;;;;;;5075659;28;20269;-77
2020/12/26 03:05:20;;;;;;;3.15;2.95;;;9.00;91.70;;;;;;5091231;28;20254;-77
2020/12/26 03:07:46;;;;;;;2.95;2.85;;;9.10;92.10;;;;;;5075371;28;20244;-77
2020/12/26 03:10:12;;;;;;;3.40;3.20;;;9.10;92.10;;;;;;5071944;28;20206;-77
2020/12/26 03:12:37;;;;;;;3.55;3.25;;;9.10;92.00;;;;;;5088797;28;20183;-77
2020/12/26 03:15:05;;;;;;;3.10;3.00;;;9.10;91.80;;;;;;5088329;28;20206;-77
2020/12/26 03:17:30;;;;;;;3.10;2.90;;;9.10;91.80;;;;;;5070804;28;20265;-77
2020/12/26 03:19:58;;;;;;;3.03;2.90;;;9.10;91.70;;;;;;5076199;28;20265;-76
2020/12/26 03:22:25;;;;;;;3.60;3.40;;;9.10;91.50;;;;;;5076180;28;20186;-77
2020/12/26 03:24:51;;;;;;;3.30;2.70;;;9.10;91.50;;;;;;5069889;28;20302;-77
2020/12/26 03:27:17;;;;;;;3.20;3.03;;;9.10;91.60;;;;;;5084020;28;20249;-77
2020/12/26 03:29:43;;;;;;;2.92;2.72;;;9.10;91.40;;;;;;5069986;28;20305;-77
2020/12/26 03:32:10;;;;;;;3.33;3.13;;;9.10;91.30;;;;;;5063679;28;20217;-77
2020/12/26 03:34:35;;;;;;;3.55;3.28;;;9.10;91.60;;;;;;5070632;28;20187;-77
2020/12/26 03:37:01;;;;;;;3.75;3.45;;;9.00;91.60;;;;;;5072880;28;20179;-76
2020/12/26 03:39:28;;;;;;;3.55;3.33;;;9.00;91.50;;;;;;5070145;28;20199;-76
2020/12/26 03:41:55;;;;;;;3.15;2.95;;;9.00;91.40;;;;;;5057740;28;20190;-76
2020/12/26 03:44:21;;;;;;;3.40;3.13;;;9.00;91.40;;;;;;5061835;28;20663;-76
2020/12/26 03:46:47;;;;;;;4.10;3.80;;;9.00;91.30;;;;;;5088702;28;20183;-76
2020/12/26 03:49:13;;;;;;;3.43;3.23;;;9.00;91.30;;;;;;5068097;28;20564;-77
2020/12/26 03:51:39;;;;;;;3.80;3.47;;;8.90;91.30;;;;;;5063574;28;20179;-77
2020/12/26 03:54:05;;;;;;;3.92;3.63;;;8.90;91.40;;;;;;5065303;28;20245;-77
2020/12/26 03:56:31;;;;;;;3.45;3.17;;;8.90;91.40;;;;;;5068880;28;20174;-77
2020/12/26 03:58:56;;;;;;;3.50;3.30;;;8.90;91.90;;;;;;5073239;28;20193;-76
2020/12/26 04:01:22;;;;;;;3.33;3.20;;;8.90;91.90;;;;;;5075001;28;20964;-77
2020/12/26 04:03:48;;;;;;;3.83;3.50;;;8.80;92.10;;;;;;5071134;28;20292;-77
2020/12/26 04:06:13;;;;;;;3.33;2.90;;;8.70;92.10;;;;;;5067322;28;20184;-77
2020/12/26 04:08:39;;;;;;;3.50;3.30;;;8.70;92.40;;;;;;5058937;28;20205;-77
2020/12/26 04:11:05;;;;;;;3.75;3.47;;;8.70;92.90;;;;;;5068228;28;20308;-77
2020/12/26 04:13:30;;;;;;;3.90;3.60;;;8.60;93.50;;;;;;5068076;28;20220;-77
2020/12/26 04:15:56;;;;;;;4.07;3.78;;;8.50;93.90;;;;;;5049436;28;20175;-77
2020/12/26 04:18:22;;;;;;;3.27;3.10;;;8.50;94.10;;;;;;5079733;28;21626;-77
2020/12/26 04:20:47;;;;;;;3.07;2.87;;;8.40;94.30;;;;;;5084458;28;20182;-77
2020/12/26 04:23:13;;;;;;;3.73;3.53;;;8.40;93.90;;;;;;5084662;28;20308;-77
2020/12/26 04:25:39;;;;;;;3.50;3.30;;;8.40;94.00;;;;;;5064403;28;20942;-77
2020/12/26 04:28:04;;;;;;;3.30;3.10;;;8.40;94.30;;;;;;5067998;28;20167;-77
2020/12/26 04:30:30;;;;;;;2.50;2.40;;;8.40;93.90;;;;;;5069312;28;20238;-77
2020/12/26 04:32:56;;;;;;;4.00;3.27;;;8.40;93.70;;;;;;5070057;28;21018;-77
2020/12/26 04:35:22;;;;;;;2.67;2.47;;;8.40;93.90;;;;;;5081144;28;20188;-77
2020/12/26 04:37:49;;;;;;;2.57;2.37;;;8.40;94.10;;;;;;5071766;28;20304;-77
2020/12/26 04:40:15;;;;;;;2.40;2.20;;;8.40;93.60;;;;;;5069637;28;20179;-78
2020/12/26 04:42:42;;;;;;;2.58;2.38;;;8.40;93.80;;;;;;5083722;28;20178;-77
2020/12/26 04:45:09;;;;;;;3.50;3.20;;;8.40;94.00;;;;;;5069267;28;20187;-77
2020/12/26 04:47:51;;;;;;;2.37;2.27;;;8.40;93.60;;;;;;5051296;28;21208;-77
2020/12/26 04:50:17;;;;;;;2.47;2.27;;;8.40;93.80;;;;;;5053146;28;20260;-77
2020/12/26 04:52:46;;;;;;;2.60;2.50;;;8.30;94.00;;;;;;5081447;28;20566;-77
2020/12/26 04:55:12;;;;;;;3.13;2.93;;;8.30;94.00;;;;;;5070959;28;20265;-77
2020/12/26 04:57:38;;;;;;;2.27;2.17;;;8.30;93.80;;;;;;5086266;28;20332;-76
2020/12/26 05:00:06;;;;;;;3.70;2.00;;;8.30;93.40;;;;;;5069011;28;20292;-75
2020/12/26 05:02:42;;;;;;;2.77;2.57;;;8.40;93.30;;;;;;5071171;28;20263;-76
2020/12/26 05:05:09;;;;;;;2.30;2.20;;;8.40;93.00;;;;;;5067469;28;20249;-76
2020/12/26 05:07:36;;;;;;;4.80;2.60;;;8.40;93.00;;;;;;5066398;28;20194;-76
2020/12/26 05:10:03;;;;;;;2.87;2.67;;;8.40;92.90;;;;;;5065112;28;20995;-76
2020/12/26 05:12:29;;;;;;;2.53;2.10;;;8.30;93.10;;;;;;5070245;28;20179;-76
2020/12/26 05:14:54;;;;;;;2.87;2.67;;;8.30;92.90;;;;;;5068433;28;20659;-76
2020/12/26 05:17:20;;;;;;;2.93;2.30;;;8.30;92.90;;;;;;5049726;28;20175;-76
2020/12/26 05:19:47;;;;;;;3.17;2.50;;;8.30;92.70;;;;;;5084390;28;20218;-76
2020/12/26 05:22:16;;;;;;;2.80;2.60;;;8.40;92.70;;;;;;5059786;28;20193;-76
2020/12/26 05:24:42;;;;;;;2.57;2.40;;;8.40;92.60;;;;;;5066333;28;20178;-76
2020/12/26 05:27:07;;;;;;;2.70;2.57;;;8.40;92.60;;;;;;5086293;28;20189;-77
2020/12/26 05:29:37;;;;;;;2.50;2.40;;;8.40;92.60;;;;;;5067700;28;20305;-76
2020/12/26 05:32:16;;;;;;;3.23;3.00;;;8.40;92.40;;;;;;5079473;28;20177;-76
2020/12/26 05:34:41;;;;;;;1.90;1.90;;;8.40;92.30;;;;;;5081027;28;20204;-77
2020/12/26 05:37:07;;;;;;;2.25;2.15;;;8.40;92.80;;;;;;5079735;28;20587;-75
2020/12/26 05:39:38;;;;;;;2.70;2.20;;;8.30;92.60;;;;;;5066070;28;20179;-75
2020/12/26 05:42:06;;;;;;;2.63;2.50;;;8.30;92.40;;;;;;5069472;28;20655;-75
2020/12/26 05:44:36;;;;;;;3.10;2.90;;;8.30;92.50;;;;;;5048146;28;20278;-75
2020/12/26 05:47:04;;;;;;;2.30;2.20;;;8.30;92.80;;;;;;5072134;28;20170;-76
2020/12/26 05:49:35;;;;;;;2.13;2.03;;;8.30;92.70;;;;;;5076506;28;21002;-76
2020/12/26 05:52:07;;;;;;;2.30;2.10;;;8.30;92.80;;;;;;5082929;28;20175;-76
2020/12/26 05:54:34;;;;;;;2.40;2.23;;;8.30;92.70;;;;;;5085898;28;20585;-76
2020/12/26 05:57:12;;;;;;;3.03;2.77;;;8.30;92.70;;;;;;5067264;28;21065;-76
2020/12/26 05:59:38;;;;;;;2.53;2.43;;;8.20;93.00;;;;;;5069533;28;20175;-76
2020/12/26 06:02:29;;;;;;;1.80;1.80;;;8.20;93.20;;;;;;5066032;28;20204;-78
2020/12/26 06:05:01;;;;;;;2.57;2.47;;;8.30;92.90;;;;;;5066414;28;20956;-77
2020/12/26 06:07:37;;;;;;;2.17;2.07;;;8.20;92.90;;;;;;5074261;28;20198;-76
2020/12/26 06:10:11;;;;;;;2.50;2.40;;;8.30;92.80;;;;;;5066340;28;20207;-78
2020/12/26 06:12:37;;;;;;;2.47;2.30;;;8.30;92.80;;;;;;5066277;28;20957;-77
2020/12/26 06:15:04;;;;;;;2.77;2.57;;;8.30;92.90;;;;;;5063363;28;20248;-77
2020/12/26 06:17:32;;;;;;;2.10;2.00;;;8.30;92.90;;;;;;5071106;28;20202;-75
2020/12/26 06:20:00;;;;;;;2.33;2.23;;;8.30;92.80;;;;;;5086113;28;20655;-77
2020/12/26 06:22:50;;;;;;;2.77;2.67;;;8.30;92.90;;;;;;5067225;28;20182;-77
2020/12/26 06:25:18;;;;;;;2.30;2.20;;;8.30;92.80;;;;;;5089795;28;20710;-76
2020/12/26 06:28:08;;;;;;;2.70;2.40;;;8.40;93.00;;;;;;5060930;28;20208;-75
2020/12/26 06:30:38;;;;;;;3.03;2.63;;;8.40;92.70;;;;;;5074699;28;20198;-76
2020/12/26 06:33:07;;;;;;;2.60;2.40;;;8.40;92.70;;;;;;5080507;28;20242;-76
2020/12/26 06:35:33;;;;;;;3.10;2.90;;;8.50;92.70;;;;;;5068724;28;20265;-76
2020/12/26 06:38:22;;;;;;;2.93;2.83;;;8.50;92.60;;;;;;5084492;28;20265;-76
2020/12/26 06:40:57;;;;;;;3.00;2.80;;;8.50;92.40;;;;;;5084665;28;20206;-76
2020/12/26 06:43:52;;;;;;;2.67;2.57;;;8.50;92.40;;;;;;5070364;28;20669;-79
2020/12/26 06:46:21;;;;;;;2.70;2.60;;;8.50;92.30;;;;;;4966243;28;20202;-79
2020/12/26 06:48:51;;;;;;;2.50;2.40;;;8.60;92.40;;;;;;4966703;28;20306;-79
2020/12/26 06:51:29;;;;;;;2.63;2.37;;;8.60;92.50;;;;;;4953344;28;20274;-79
2020/12/26 06:54:01;;;;;;;2.63;2.47;;;8.60;92.20;;;;;;4953443;28;20917;-79
2020/12/26 06:56:35;;;;;;;2.87;2.50;;;8.60;92.40;;;;;;4952551;29;20262;-79
2020/12/26 06:59:03;;;;;;;2.43;2.33;;;8.50;92.40;;;;;;4952624;29;20191;-80
2020/12/26 07:01:30;;;;;;;2.60;2.40;;;8.50;92.50;;;;;;4956424;28;20190;-79
2020/12/26 07:04:10;;;;;;;2.77;2.57;;;8.50;92.50;;;;;;4952743;29;20261;-79
2020/12/26 07:06:41;;;;;;;2.05;1.95;;;8.50;92.30;;;;;;4952518;29;20186;-79
2020/12/26 07:09:07;;;;;;;2.97;2.88;;;8.50;92.50;;;;;;4952741;28;20229;-79
2020/12/26 07:11:46;;;;;;;2.30;2.20;;;8.50;92.40;;;;;;4939663;28;20178;-79
2020/12/26 07:14:38;;;;;;;2.03;1.93;;;8.50;92.30;;;;;;4940132;29;21014;-79
2020/12/26 07:17:24;;;;;;;2.63;2.43;;;8.50;92.20;;;;;;4929119;29;20188;-79
2020/12/26 07:19:58;;;;;;;3.23;3.00;;;8.60;92.30;;;;;;4932565;28;20180;-78
2020/12/26 07:22:31;;;;;;;2.40;2.30;;;8.60;92.40;;;;;;4950186;28;20234;-79
2020/12/26 07:25:04;;;;;;;2.93;2.60;;;8.60;92.40;;;;;;5031189;28;20255;-78
2020/12/26 07:27:31;;;;;;;8.13;3.00;;;8.70;92.30;;;;;;5032371;28;20192;-79
2020/12/26 07:30:07;;;;;;;3.50;3.23;;;8.70;92.30;;;;;;5021213;28;20267;-78
2020/12/26 07:32:36;;;;;;;3.55;3.08;;;8.70;92.20;;;;;;5012737;28;20201;-78
2020/12/26 07:35:20;;;;;;;3.37;3.13;;;8.80;92.00;;;;;;4996100;28;20193;-78
2020/12/26 07:38:03;;;;;;;3.03;2.72;;;8.80;91.70;;;;;;5012031;28;20227;-78
2020/12/26 07:40:34;;;;;;;2.72;2.63;;;8.80;91.70;;;;;;5012249;28;20209;-77
2020/12/26 07:43:02;;;;;;;3.17;2.97;;;8.80;91.80;;;;;;5010937;28;20242;-78
2020/12/26 07:45:29;;;;;;;4.17;3.77;;;8.80;91.90;;;;;;5031746;28;20696;-77
2020/12/26 07:47:57;;;;;;;3.38;3.08;;;8.90;91.90;;;;;;5015010;28;20200;-78
2020/12/26 07:50:25;;;;;;;4.00;3.70;;;8.90;91.70;;;;;;5036135;28;20215;-79
2020/12/26 07:52:53;;;;;;;4.30;4.00;;;8.90;91.60;;;;;;5047731;28;20186;-78
2020/12/26 07:55:19;;;;;;;4.10;3.73;;;9.00;91.60;;;;;;5074586;28;20240;-77
2020/12/26 07:57:45;;;;;;;4.57;4.28;;;9.00;91.50;;;;;;5077956;28;20847;-78
2020/12/26 08:00:25;;;;;;;3.30;3.05;;;8.90;91.60;;;;;;5081629;28;20174;-77
2020/12/26 08:02:52;;;;;;;4.10;3.80;;;8.90;91.50;;;;;;5079496;28;20170;-77
2020/12/26 08:05:20;;;;;;;4.40;4.00;;;8.90;91.70;;;;;;5072493;28;20182;-78
2020/12/26 08:07:46;;;;;;;4.00;3.80;;;8.90;91.60;;;;;;5084750;28;20233;-78
2020/12/26 08:10:14;;;;;;;4.00;3.75;;;9.00;91.60;;;;;;5076586;28;20215;-78
2020/12/26 08:12:52;;;;;;;4.85;4.35;;;9.00;91.60;;;;;;5076428;28;20646;-77
2020/12/26 08:15:22;;;;;;;6.43;4.57;;;9.00;91.60;;;;;;5072325;28;20231;-79
2020/12/26 08:17:52;;;;;;;5.32;4.82;;;9.00;91.70;;;;;;5054648;28;20164;-80
2020/12/26 08:20:21;;;;;;;7.27;4.77;;;9.00;91.70;;;;;;5066238;28;20577;-78
2020/12/26 08:22:48;;;;;;;5.53;4.77;;;9.00;91.80;;;;;;5049708;28;20217;-77
2020/12/26 08:25:14;;;;;;;4.93;4.57;;;9.00;91.90;;;;;;5067178;28;20179;-77
2020/12/26 08:27:40;;;;;;;4.72;4.32;;;9.00;91.70;;;;;;5075464;28;20183;-76
2020/12/26 08:30:28;;;;;;;5.32;4.90;;;9.00;91.90;;;;;;5047998;28;20214;-77
2020/12/26 08:33:17;;;;;;;5.45;5.00;;;9.10;91.80;;;;;;5037786;28;20179;-80
2020/12/26 08:36:06;;;;;;;4.93;4.47;;;9.10;91.90;;;;;;5071245;28;20225;-79
2020/12/26 08:38:59;;;;;;;6.67;5.00;;;9.10;91.90;;;;;;5059382;28;20189;-80
2020/12/26 08:41:25;;;;;;;5.80;5.20;;;9.10;92.00;;;;;;5050932;28;20191;-79
2020/12/26 08:43:52;;;;;;;5.75;4.85;;;9.20;91.90;;;;;;5074321;28;20269;-79
2020/12/26 08:46:19;;;;;;;7.28;5.13;;;9.20;91.70;;;;;;5051691;28;20643;-76
2020/12/26 08:48:46;;;;;;;6.38;5.72;;;9.20;91.80;;;;;;5065324;28;20236;-77
2020/12/26 08:51:20;;;;;;;5.55;5.15;;;9.20;91.70;;;;;;5064157;28;20189;-77
2020/12/26 08:53:47;;;;;;;7.73;5.07;;;9.20;91.50;;;;;;5069229;28;20257;-76
2020/12/26 08:56:13;;;;;;;6.53;5.28;;;9.20;91.70;;;;;;5066871;28;20537;-77
2020/12/26 08:58:47;;;;;;;5.55;4.63;;;9.30;91.80;;;;;;5066110;28;20199;-76
2020/12/26 09:01:13;;;;;;;6.13;5.13;;;9.30;91.60;;;;;;5065844;28;20186;-75
2020/12/26 09:03:38;;;;;;;5.53;5.03;;;9.30;91.40;;;;;;5065457;28;20569;-76
2020/12/26 09:06:04;;;;;;;6.22;5.68;;;9.40;91.40;;;;;;5061124;28;20206;-76
2020/12/26 09:08:32;;;;;;;5.45;4.95;;;9.40;91.30;;;;;;5065534;28;20203;-75
2020/12/26 09:11:07;;;;;;;10.57;5.65;;;9.40;91.00;;;;;;5065422;28;20171;-77
2020/12/26 09:13:35;;;;;;;6.97;5.35;;;9.40;91.20;;;;;;5065583;28;20186;-74
2020/12/26 09:16:06;;;;;;;5.60;5.20;;;9.40;91.10;;;;;;5063812;28;20199;-74
2020/12/26 09:18:43;;;;;;;5.70;5.22;;;9.50;91.10;;;;;;5065569;28;20182;-73
2020/12/26 09:21:22;;;;;;;6.25;5.65;;;9.50;90.80;;;;;;5065744;28;20178;-76
2020/12/26 09:23:50;;;;;;;5.93;5.35;;;9.50;90.80;;;;;;5049985;28;20339;-76
2020/12/26 09:26:16;;;;;;;5.67;5.17;;;9.50;90.80;;;;;;5056408;28;20178;-76
2020/12/26 09:28:52;;;;;;;4.85;4.53;;;9.50;90.70;;;;;;5060287;28;20175;-75
2020/12/26 09:31:23;;;;;;;6.28;5.50;;;9.50;90.80;;;;;;5063422;28;20156;-75
2020/12/26 09:33:50;;;;;;;6.38;5.13;;;9.50;90.80;;;;;;5046690;28;20223;-77
2020/12/26 09:36:23;;;;;;;6.35;5.78;;;9.50;91.00;;;;;;5065190;28;20281;-77
2020/12/26 09:38:49;;;;;;;5.93;5.50;;;9.60;90.80;;;;;;5064991;28;20186;-77
2020/12/26 09:41:23;;;;;;;5.57;5.07;;;9.60;90.80;;;;;;5063140;28;20221;-75
2020/12/26 09:43:54;;;;;;;6.57;5.28;;;9.70;90.70;;;;;;5046240;28;20274;-76
2020/12/26 09:46:22;;;;;;;6.90;6.10;;;9.60;90.60;;;;;;5060379;28;20182;-86
2020/12/26 09:48:48;;;;;;;5.85;5.30;;;9.70;90.70;;;;;;5058849;28;20187;-77
2020/12/26 09:51:19;;;;;;;7.70;5.00;;;9.70;90.40;;;;;;5050549;28;20654;-76
2020/12/26 09:53:45;;;;;;;6.13;5.53;;;9.80;90.50;;;;;;5072938;28;20548;-80
2020/12/26 09:56:12;;;;;;;5.78;5.20;;;9.80;90.20;;;;;;5073113;28;20182;-81
2020/12/26 09:58:39;;;;;;;5.38;4.85;;;9.90;90.20;;;;;;5070651;28;20167;-78
2020/12/26 10:01:06;;;;;;;4.60;4.20;;;9.90;90.00;;;;;;5055754;28;20269;-77
2020/12/26 10:03:32;;;;;;;7.20;5.65;;;10.00;89.90;;;;;;5072628;28;20232;-78
2020/12/26 10:05:58;;;;;;;10.45;7.35;;;10.00;89.70;;;;;;5071254;28;20682;-80
2020/12/26 10:08:24;;;;;;;9.60;8.20;;;10.00;89.70;;;;;;5061830;28;20183;-79
2020/12/26 10:10:49;;;;;;;12.38;9.75;;;10.00;89.50;;;;;;5074011;28;20741;-80
2020/12/26 10:13:15;;;;;;;15.55;11.07;;;10.10;89.50;;;;;;5070583;28;20183;-77
2020/12/26 10:15:41;;;;;;;13.00;9.52;;;10.10;89.20;;;;;;5071462;28;20241;-76
2020/12/26 10:18:06;;;;;;;15.60;10.38;;;10.10;89.20;;;;;;5068501;28;20194;-77
2020/12/26 10:20:32;;;;;;;13.25;9.75;;;10.10;89.00;;;;;;5063588;28;20182;-78
2020/12/26 10:22:58;;;;;;;13.23;9.82;;;10.10;88.60;;;;;;5074655;28;20655;-77
2020/12/26 10:25:25;;;;;;;13.68;9.65;;;10.10;88.80;;;;;;5069756;28;20686;-77
2020/12/26 10:27:52;;;;;;;18.00;10.23;;;10.10;88.80;;;;;;5051919;28;20552;-76
2020/12/26 10:30:19;;;;;;;13.65;10.13;;;10.10;88.40;;;;;;5051448;28;20199;-80
2020/12/26 10:32:46;;;;;;;15.68;10.55;;;10.10;88.60;;;;;;5088471;28;20183;-81
2020/12/26 10:35:11;;;;;;;16.95;11.18;;;10.10;88.70;;;;;;5066536;28;20210;-80
2020/12/26 10:37:38;;;;;;;16.83;11.15;;;10.10;88.50;;;;;;5052338;28;20268;-81
2020/12/26 10:40:05;;;;;;;20.05;11.05;;;10.10;88.70;;;;;;5055384;28;20183;-79
2020/12/26 10:42:31;;;;;;;17.27;11.98;;;10.10;88.60;;;;;;5067323;28;20195;-78
2020/12/26 10:44:56;;;;;;;15.27;10.65;;;10.20;88.60;;;;;;5054189;28;20187;-74
2020/12/26 10:47:22;;;;;;;17.35;11.90;;;10.20;88.40;;;;;;5066780;28;20207;-76
2020/12/26 10:49:48;;;;;;;17.38;12.20;;;10.20;88.30;;;;;;5030922;28;20214;-75
2020/12/26 10:52:13;;;;;;;18.27;11.73;;;10.30;88.30;;;;;;5052984;28;20685;-74
2020/12/26 10:54:39;;;;;;;16.40;11.65;;;10.40;88.10;;;;;;5063819;28;20183;-74
2020/12/26 10:57:05;;;;;;;18.88;12.35;;;10.40;88.10;;;;;;5066867;28;20186;-74
2020/12/26 10:59:30;;;;;;;16.13;11.80;;;10.50;87.90;;;;;;5065014;28;20605;-77
2020/12/26 11:01:56;;;;;;;21.27;13.02;;;10.50;87.40;;;;;;5067917;28;20186;-76
2020/12/26 11:04:22;;;;;;;19.02;12.85;;;10.60;86.90;;;;;;5048775;28;20178;-80
2020/12/26 11:06:49;;;;;;;16.50;11.63;;;10.60;87.00;;;;;;5067188;28;20282;-75
2020/12/26 11:09:18;;;;;;;15.40;11.35;;;10.60;87.00;;;;;;5064735;28;20211;-75
2020/12/26 11:11:52;;;;;;;16.67;11.60;;;10.60;87.10;;;;;;5066722;28;20175;-75
2020/12/26 11:14:18;;;;;;;19.90;13.75;;;10.60;86.50;;;;;;5067015;28;20612;-74
2020/12/26 11:16:51;;;;;;;19.33;13.20;;;10.60;86.60;;;;;;5067351;28;20628;-74
2020/12/26 11:19:18;;;;;;;20.25;13.52;;;10.60;86.50;;;;;;5066989;28;20183;-74
2020/12/26 11:21:44;;;;;;;19.15;12.77;;;10.60;86.90;;;;;;5082855;28;20642;-74
2020/12/26 11:24:12;;;;;;;20.45;13.02;;;10.60;86.70;;;;;;5067296;28;20175;-75
2020/12/26 11:26:38;;;;;;;19.08;12.43;;;10.60;86.60;;;;;;5083032;28;20293;-74
2020/12/26 11:29:04;;;;;;;20.17;12.38;;;10.50;86.20;;;;;;5067702;28;20278;-74
2020/12/26 11:31:30;;;;;;;17.42;11.77;;;10.50;86.10;;;;;;5067765;28;20656;-74
2020/12/26 11:33:55;;;;;;;17.25;11.75;;;10.50;86.50;;;;;;5082631;28;20615;-74
2020/12/26 11:36:23;;;;;;;18.70;13.15;;;10.50;86.70;;;;;;5067538;28;20198;-75
2020/12/26 11:38:49;;;;;;;13.20;10.68;;;10.50;86.90;;;;;;5067869;28;20250;-74
2020/12/26 11:41:18;;;;;;;16.30;11.07;;;10.60;86.70;;;;;;5066523;28;20167;-74
2020/12/26 11:43:44;;;;;;;16.20;10.57;;;10.60;85.90;;;;;;5066261;28;20179;-74
2020/12/26 11:46:10;;;;;;;17.45;11.82;;;10.60;85.90;;;;;;5065369;28;20175;-74
2020/12/26 11:48:36;;;;;;;14.13;10.13;;;10.60;85.80;;;;;;5067183;28;20639;-74
2020/12/26 11:51:02;;;;;;;12.30;9.50;;;10.60;85.90;;;;;;5066689;28;20175;-74
2020/12/26 11:53:28;;;;;;;13.10;8.95;;;10.60;86.10;;;;;;5048600;28;20267;-74
2020/12/26 11:55:53;;;;;;;14.15;8.80;;;10.60;85.20;;;;;;5066762;28;20258;-75
2020/12/26 11:58:21;;;;;;;12.05;9.13;;;10.50;85.20;;;;;;5066397;28;20539;-74
2020/12/26 12:00:47;;;;;;;11.77;9.38;;;10.50;85.40;;;;;;5066194;28;20179;-74
2020/12/26 12:03:13;;;;;;;12.10;8.52;;;10.50;85.60;;;;;;5047916;28;20273;-74
2020/12/26 12:05:38;;;;;;;10.13;7.97;;;10.50;85.90;;;;;;5066534;28;20174;-74
2020/12/26 12:08:04;;;;;;;11.68;8.35;;;10.60;85.60;;;;;;5065134;28;20199;-74
2020/12/26 12:10:30;;;;;;;12.93;9.43;;;10.50;85.40;;;;;;5064912;28;20690;-74
2020/12/26 12:12:55;;;;;;;17.50;10.27;;;10.60;85.40;;;;;;5065595;28;20175;-75
2020/12/26 12:15:21;;;;;;;13.50;9.48;;;10.60;85.50;;;;;;5065495;28;20194;-75
2020/12/26 12:17:47;;;;;;;15.13;9.80;;;10.60;85.60;;;;;;5065697;28;20179;-75
2020/12/26 12:20:12;;;;;;;12.52;9.43;;;10.60;85.70;;;;;;5064423;28;20565;-75
2020/12/26 12:22:38;;;;;;;17.88;10.85;;;10.70;85.70;;;;;;5063868;28;20186;-75
2020/12/26 12:25:04;;;;;;;16.30;11.50;;;10.70;85.50;;;;;;5065010;28;20203;-75
2020/12/26 12:27:29;;;;;;;16.85;10.95;;;10.80;85.20;;;;;;5066634;28;20664;-75
2020/12/26 12:29:55;;;;;;;15.88;11.18;;;10.70;85.10;;;;;;5064617;28;20280;-75
2020/12/26 12:32:21;;;;;;;16.58;11.65;;;10.70;85.40;;;;;;5064234;28;20179;-75
2020/12/26 12:34:46;;;;;;;17.23;11.75;;;10.70;85.70;;;;;;5064231;28;21043;-74
2020/12/26 12:37:13;;;;;;;20.58;11.40;;;10.70;85.70;;;;;;5065795;28;20177;-74
2020/12/26 12:39:38;;;;;;;16.30;11.57;;;10.70;85.60;;;;;;5065478;28;20260;-74
2020/12/26 12:42:07;;;;;;;17.13;12.18;;;10.60;85.60;;;;;;5065428;28;20214;-74
2020/12/26 12:44:34;;;;;;;18.75;12.75;;;10.60;85.80;;;;;;5065312;28;20620;-74
2020/12/26 12:47:01;;;;;;;25.15;16.25;;;10.50;86.10;;;;;;5065275;28;20179;-74
2020/12/26 12:49:27;;;;;;;26.00;16.48;;;10.40;86.90;;;;;;5065535;28;20233;-74
2020/12/26 12:51:53;;;;;;;27.88;16.35;;;10.40;87.20;;;;;;5065358;28;20307;-74
2020/12/26 12:54:18;;;;;;;29.85;15.18;;;10.30;87.60;;;;;;5065665;28;20759;-74
2020/12/26 12:56:44;;;;;;;24.17;12.48;;;10.20;87.90;;;;;;5064599;28;20190;-74